Station: Cultana (Defence)

  Atmospheric Gas Attenuation - ITU Rec 676-11   --------------- db/100km ---------------
Date Time Temp RH % AH g/m3 Dew Point Wind Direction Speed kph Gust kph Barometer mB Rainfall Since 9am 24GHz 47GHz 76GHz 122GHz 134GHz 241GHz
24 18:40 39.1 9 4.39 0.4 28 30 1013.1 0 10.0 15.1 18.1 46.7 34.9 117.9
24 18:30 39.4 9 4.46 0.7 32 39 1013.1 0 10.1 15.1 18.2 47.0 35.3 119.6
24 18:20 39.5 9 4.48 0.7 32 35 1013.1 0 10.1 15.1 18.2 47.1 35.5 120.0
24 18:10 39.7 8 4.03 -0.7 32 35 1013.1 0 9.2 14.7 17.1 44.1 31.7 106.9
24 18:00 39.8 8 4.05 -0.6 37 46 1013.1 0 9.3 14.7 17.1 44.1 31.9 107.3
24 17:50 39.8 8 4.05 -0.7 39 41 1013.1 0 9.3 14.7 17.1 44.1 31.9 107.3
24 17:40 40.4 8 4.17 -0.2 22 46 1013.1 0 9.5 14.7 17.3 44.6 32.6 110.0
24 17:30 40.4 9 4.69 1.4 9 20 1013.1 0 10.5 15.2 18.5 48.0 36.8 124.8
24 17:20 40.3 9 4.67 1.3 4 7 1013.1 0 10.5 15.2 18.5 47.9 36.7 124.4
24 17:10 40.5 9 4.71 1.5 20 28 1013.1 0 10.6 15.2 18.6 48.1 36.9 125.2
24 17:00 40.6 8 4.21 0 13 24 1013.1 0 9.6 14.7 17.3 44.8 32.8 110.9
24 16:50 40.6 9 4.74 1.6 17 26 1013.1 0 10.6 15.2 18.6 48.2 37.1 126.0
24 16:40 40.6 8 4.21 -0.1 17 19 1013.1 0 9.6 14.7 17.3 44.8 32.8 110.9
24 16:30 41.4 8 4.38 0.5 19 28 1013.1 0 9.9 14.8 17.6 45.5 33.9 114.7
24 16:20 41 8 4.3 0.2 17 22 1013.1 0 9.7 14.7 17.5 45.1 33.4 112.9
24 16:10 41.3 8 4.36 0.4 19 20 1013.1 0 9.8 14.7 17.6 45.4 33.8 114.2
24 16:00 41.4 8 4.38 0.5 13 24 1013.1 0 9.9 14.8 17.6 45.5 33.9 114.7
24 15:50 41.4 8 4.38 0.5 7 9 1013.1 0 9.9 14.8 17.6 45.5 33.9 114.7
24 15:40 42.3 8 4.58 1.2 22 30 1013.1 0 10.3 14.8 17.9 46.3 35.1 119.1
24 15:30 41.3 8 4.36 0.5 13 28 1013.1 0 9.8 14.7 17.6 45.4 33.8 114.2
24 15:20 42.7 8 4.67 1.5 20 24 1013.1 0 10.4 14.8 18.0 46.7 35.7 121.1
24 15:10 41.8 8 4.47 0.8 15 20 1013.1 0 10.0 14.8 17.7 45.8 34.5 116.7
24 15:00 41.8 8 4.47 0.8 17 32 1013.1 0 10.0 14.8 17.7 45.8 34.5 116.7
24 14:50 41.6 8 4.43 0.7 24 28 1013.1 0 10.0 14.8 17.7 45.7 34.2 115.8
24 14:40 41.5 8 4.4 0.6 22 30 1013.1 0 9.9 14.8 17.6 45.5 34.0 115.1
24 14:30 42.4 8 4.6 1.3 20 39 1013.1 0 10.3 14.8 17.9 46.4 35.3 119.5
24 14:20 41.2 8 4.34 0.4 22 26 1013.1 0 9.8 14.7 17.5 45.3 33.7 113.8
24 14:10 40.9 9 4.81 1.8 20 24 1013.1 0 10.8 15.3 18.7 48.5 37.6 127.5
24 14:00 40.5 9 4.71 1.5 24 32 1013.1 0 10.6 15.2 18.6 48.1 36.9 125.2
24 13:50 40.1 9 4.62 1.2 30 35 1013.1 0 10.4 15.2 18.4 47.7 36.3 123.2
24 13:40 40 10 5.11 2.6 30 35 1013.1 0 11.4 15.7 19.7 51.0 40.4 137.6
24 13:30 40.5 10 5.24 3 26 33 1013.1 0 11.6 15.8 19.9 51.6 41.3 140.6
24 13:20 39.8 10 5.06 2.4 28 33 1013.1 0 11.3 15.7 19.6 50.8 40.1 136.4
24 13:10 39.8 10 5.06 2.4 28 33 1013.1 0 11.3 15.7 19.6 50.8 40.1 136.4
24 13:00 39.8 10 5.06 2.5 26 35 1013.1 0 11.3 15.7 19.6 50.8 40.1 136.4
24 12:50 40.4 10 5.21 2.9 20 24 1013.1 0 11.6 15.7 19.8 51.5 41.1 139.9
24 12:40 39.9 10 5.08 2.5 32 37 1013.1 0 11.3 15.7 19.6 50.9 40.2 136.9
24 12:30 40 10 5.11 2.6 32 46 1013.1 0 11.4 15.7 19.7 51.0 40.4 137.6
24 12:20 39.7 10 5.03 2.4 35 39 1013.1 0 11.2 15.7 19.5 50.7 39.9 135.7
24 12:10 40.1 10 5.13 2.7 37 43 1013.1 0 11.4 15.7 19.7 51.1 40.5 138.0
24 12:00 40.6 10 5.26 3.1 32 44 1013.1 0 11.7 15.8 19.9 51.7 41.4 141.0
24 11:50 40.4 10 5.21 2.9 35 39 1013.1 0 11.6 15.7 19.8 51.5 41.1 139.9
24 11:40 39.8 11 5.56 3.8 32 35 1013.1 0 12.3 16.2 20.8 54.2 44.3 151.2
24 11:30 39.6 11 5.51 3.7 33 44 1013.1 0 12.2 16.2 20.8 54.0 44.0 150.1
24 11:20 39.6 11 5.51 3.6 32 37 1013.1 0 12.2 16.2 20.8 54.0 44.0 150.1
24 11:10 39.8 11 5.56 3.8 30 35 1013.1 0 12.3 16.2 20.8 54.2 44.3 151.2
24 11:00 39.2 11 5.4 3.4 30 41 1013.1 0 12.0 16.1 20.6 53.5 43.2 147.5
24 10:50 38.9 11 5.32 3.1 33 39 1013.1 0 11.8 16.1 20.4 53.1 42.7 145.6
24 10:40 37.9 10 4.59 1 19 22 1013.1 0 10.4 15.5 18.8 48.7 37.0 125.4
24 10:30 37.5 10 4.5 0.7 20 28 1013.1 0 10.2 15.5 18.7 48.3 36.4 123.3
24 10:20 36.3 10 4.23 -0.2 22 22 1013.1 0 9.7 15.4 18.2 47.1 34.7 117.0
24 10:10 36.3 10 4.23 -0.2 19 22 1013.1 0 9.7 15.4 18.2 47.1 34.7 117.0
24 10:00 36.1 10 4.19 -0.3 24 33 1013.1 0 9.6 15.4 18.2 47.0 34.4 116.0
24 09:50 36 10 4.17 -0.4 20 24 1013.1 0 9.6 15.3 18.1 46.9 34.3 115.6
24 09:40 35.1 10 3.98 -1.1 22 26 1013.1 0 9.2 15.3 17.8 46.1 33.0 111.1
24 09:30 34.1 10 3.77 -1.8 17 20 1013.1 0 8.8 15.2 17.5 45.1 31.6 106.0
24 09:20 33.3 10 3.62 -2.5 15 17 1013.1 0 8.5 15.2 17.3 44.5 30.6 102.5
24 09:10 32.9 10 3.54 -2.8 19 20 1013.1 0 8.4 15.2 17.2 44.2 30.1 100.5
24 09:00 32.6 10 3.49 -2.9 19 24 1013.1 0 8.3 15.2 17.1 44.0 29.8 99.4
24 08:50 32.3 11 3.77 -1.9 19 22 1013.1 0 8.9 15.5 17.9 46.1 32.3 108.2
24 08:40 32 11 3.71 -2.2 17 20 1013.1 0 8.8 15.5 17.8 45.8 31.9 106.7
24 08:30 31.7 11 3.66 -2.3 19 24 1013.1 0 8.7 15.5 17.7 45.6 31.6 105.6
24 08:20 31.7 11 3.66 -2.4 20 22 1013.1 0 8.7 15.5 17.7 45.6 31.6 105.6
24 08:10 30.6 12 3.76 -2.1 19 22 1013.1 0 8.9 15.8 18.2 46.9 32.8 110.0
24 08:00 30.1 12 3.66 -2.4 20 24 1013.1 0 8.7 15.7 18.0 46.5 32.2 107.5
24 07:50 29.8 13 3.9 -1.6 22 24 1013.1 0 9.2 16.0 18.7 48.4 34.4 115.4
24 07:40 29.3 13 3.8 -2 24 26 1013.1 0 9.0 16.0 18.6 47.9 33.7 112.9
24 07:30 29.1 14 4.04 -1.1 22 24 1013.1 0 9.5 16.3 19.3 49.8 36.0 120.9
24 07:20 28.9 14 4 -1.3 22 22 1013.1 0 9.4 16.3 19.2 49.6 35.7 119.9
24 07:10 29.3 14 4.09 -1 22 24 1013.1 0 9.6 16.3 19.4 50.0 36.3 122.2
24 07:00 29.9 13 3.92 -1.5 22 26 1013.1 0 9.2 16.0 18.8 48.5 34.5 115.9
24 06:50 29.7 13 3.88 -1.7 22 22 1013.1 0 9.2 16.0 18.7 48.3 34.3 114.9
24 06:40 30 13 3.94 -1.4 20 22 1013.1 0 9.3 16.0 18.8 48.5 34.7 116.4
24 06:30 30.2 13 3.99 -1.2 20 22 1013.1 0 9.4 16.1 18.9 48.8 35.0 117.8
24 06:20 30.4 12 3.72 -2.2 19 20 1013.1 0 8.8 15.7 18.1 46.7 32.6 109.0
24 06:10 30.7 12 3.78 -2 19 20 1013.1 0 8.9 15.8 18.2 47.0 33.0 110.5
24 06:00 30.7 12 3.78 -1.9 19 20 1013.1 0 8.9 15.8 18.2 47.0 33.0 110.5
24 05:50 30.2 13 3.99 -1.3 17 17 1013.1 0 9.4 16.1 18.9 48.8 35.0 117.8
24 05:40 29.8 13 3.9 -1.6 17 17 1013.1 0 9.2 16.0 18.7 48.4 34.4 115.4
24 05:30 29.7 14 4.18 -0.6 17 17 1013.1 0 9.8 16.4 19.5 50.5 37.0 124.5
24 05:20 29.7 14 4.18 -0.7 15 17 1013.1 0 9.8 16.4 19.5 50.5 37.0 124.5
24 04:50 29.4 14 4.11 -0.9 15 15 1013.1 0 9.6 16.3 19.4 50.1 36.5 122.7
24 04:40 29.3 14 4.09 -1 15 17 1013.1 0 9.6 16.3 19.4 50.0 36.3 122.2
24 04:30 29.2 15 4.36 -0.1 15 17 1013.1 0 10.2 16.7 20.1 52.1 38.8 131.0
24 04:20 29.5 14 4.13 -0.8 17 17 1013.1 0 9.7 16.3 19.4 50.2 36.6 123.2
24 04:10 29.6 14 4.16 -0.7 17 17 1013.1 0 9.7 16.4 19.5 50.4 36.8 124.0
24 04:00 29.8 14 4.2 -0.5 15 17 1013.1 0 9.8 16.4 19.6 50.6 37.1 125.0
24 03:50 29.4 15 4.4 0.1 15 15 1013.1 0 10.2 16.7 20.2 52.3 39.1 132.0
24 03:40 29.8 15 4.5 0.4 17 17 1013.1 0 10.4 16.7 20.4 52.8 39.8 134.6
24 03:30 30 14 4.25 -0.4 17 17 1013.1 0 9.9 16.4 19.7 50.8 37.5 126.3
24 03:20 30.3 14 4.32 -0.2 15 15 1013.1 0 10.0 16.4 19.8 51.1 38.0 128.1
24 03:10 30.5 14 4.36 0 19 19 1013.1 0 10.1 16.4 19.8 51.3 38.3 129.1
24 03:00 30.6 14 4.39 0.1 17 20 1013.1 0 10.2 16.4 19.9 51.5 38.5 129.9
24 02:50 30.9 14 4.46 0.3 19 20 1013.1 0 10.3 16.5 20.0 51.8 39.0 131.7
24 02:40 30.7 14 4.41 0.1 20 20 1013.1 0 10.2 16.5 19.9 51.6 38.6 130.4
24 02:30 30.8 15 4.75 1.2 20 22 1013.1 0 10.9 16.8 20.8 54.0 41.7 141.1
24 02:20 30.5 15 4.67 0.9 20 22 1013.1 0 10.8 16.8 20.7 53.6 41.1 139.0
24 02:10 30.8 15 4.75 1.2 24 24 1013.1 0 10.9 16.8 20.8 54.0 41.7 141.1
24 02:00 30.8 15 4.75 1.2 20 22 1013.1 0 10.9 16.8 20.8 54.0 41.7 141.1
24 01:50 30.7 15 4.72 1.1 20 20 1013.1 0 10.9 16.8 20.8 53.8 41.4 140.3

Last Refresh: 24-Jan-2021 18:53:09

Most of the information presented on this site is sourced from the Bureau of Meteorology.  Copyright in all material sourced from the Bureau of Meteorology resides with the Commonwealth of Australia.